Time;durP1;ratioP1;P1;durP2;ratioP2;P2;SDS_P1;SDS_P2;PMS_P1;PMS_P2;Temp;Humidity;BMP_temperature;BMP_pressure;BME280_temperature;BME280_humidity;BME280_pressure;Samples;Min_cycle;Max_cycle;Signal;HPM_P1;HPM_P2
2022/06/17 00:02:05;;;;;;;11.40;7.32;;;;;;;25.02;100.00;102249.09;5093524;28;20084;-52
2022/06/17 00:04:30;;;;;;;15.17;7.77;;;;;;;24.75;100.00;102249.94;5092489;28;20094;-52
2022/06/17 00:06:59;;;;;;;10.45;7.88;;;;;;;24.11;100.00;102245.06;5074045;28;20020;-53
2022/06/17 00:09:27;;;;;;;19.27;7.57;;;;;;;24.71;100.00;102254.22;5094245;28;20035;-54
2022/06/17 00:11:53;;;;;;;11.57;8.17;;;;;;;24.47;100.00;102259.16;5091921;28;20056;-55
2022/06/17 00:14:28;;;;;;;12.30;7.33;;;;;;;23.87;100.00;102251.53;5096353;28;20032;-52
2022/06/17 00:16:55;;;;;;;13.75;7.80;;;;;;;23.86;100.00;102251.75;5088913;28;20020;-49
2022/06/17 00:19:20;;;;;;;11.40;7.57;;;;;;;24.32;100.00;102263.34;5091946;28;20099;-51
2022/06/17 00:21:49;;;;;;;16.77;7.95;;;;;;;24.16;100.00;102253.31;5094016;28;20040;-52
2022/06/17 00:24:20;;;;;;;13.80;7.33;;;;;;;24.15;100.00;102251.66;5095666;28;20036;-56
2022/06/17 00:26:46;;;;;;;13.70;7.73;;;;;;;23.83;100.00;102261.31;5091152;28;20055;-53
2022/06/17 00:29:13;;;;;;;13.85;7.63;;;;;;;23.90;100.00;102261.94;5093893;28;20048;-52
2022/06/17 00:31:39;;;;;;;15.87;7.90;;;;;;;23.86;100.00;102258.06;5094979;28;20035;-52
2022/06/17 00:34:05;;;;;;;18.83;7.22;;;;;;;23.69;100.00;102246.34;5054342;28;20028;-50
2022/06/17 00:36:31;;;;;;;12.17;7.47;;;;;;;23.85;100.00;102250.09;5095015;28;20040;-56
2022/06/17 00:38:56;;;;;;;15.30;8.13;;;;;;;24.08;100.00;102251.00;5064352;28;20127;-53
2022/06/17 00:41:28;;;;;;;15.00;8.32;;;;;;;23.94;100.00;102250.50;5094517;28;20066;-52
2022/06/17 00:43:53;;;;;;;14.73;7.60;;;;;;;24.01;100.00;102259.38;5094359;28;20040;-55
2022/06/17 00:46:42;;;;;;;12.18;7.50;;;;;;;23.67;100.00;102259.41;5093148;28;20144;-56
2022/06/17 00:49:18;;;;;;;10.10;7.60;;;;;;;23.48;100.00;102251.47;5091429;28;20100;-54
2022/06/17 00:51:56;;;;;;;15.48;8.30;;;;;;;23.54;100.00;102246.94;5088438;28;20054;-54
2022/06/17 00:54:26;;;;;;;14.63;7.77;;;;;;;23.44;100.00;102248.44;5084182;28;20029;-52
2022/06/17 00:56:52;;;;;;;18.93;7.83;;;;;;;23.51;100.00;102247.44;5092180;28;20058;-54
2022/06/17 00:59:18;;;;;;;;;;;;;;;23.23;100.00;102258.13;5091420;28;20044;-54
2022/06/17 01:02:13;;;;;;;12.43;7.90;;;;;;;23.32;100.00;102251.25;5095194;28;19916;-56
2022/06/17 01:04:48;;;;;;;14.33;8.60;;;;;;;23.40;100.00;102268.28;5044555;28;20033;-53
2022/06/17 01:07:23;;;;;;;14.37;7.87;;;;;;;23.40;100.00;102262.81;5093944;28;20032;-55
2022/06/17 01:09:58;;;;;;;13.27;8.87;;;;;;;23.06;100.00;102263.59;5049883;28;20051;-52
2022/06/17 01:12:33;;;;;;;13.47;8.00;;;;;;;22.78;100.00;102257.91;5039216;28;20028;-50
2022/06/17 01:14:59;;;;;;;13.33;8.23;;;;;;;22.70;100.00;102260.19;5051349;28;20040;-51
2022/06/17 01:17:26;;;;;;;13.67;9.07;;;;;;;22.75;100.00;102252.94;5093139;28;20028;-53
2022/06/17 01:19:59;;;;;;;15.90;7.70;;;;;;;22.95;100.00;102248.94;5048265;28;20068;-53
2022/06/17 01:22:27;;;;;;;13.73;8.07;;;;;;;23.08;100.00;102255.16;5082605;28;20036;-54
2022/06/17 01:24:58;;;;;;;17.87;9.03;;;;;;;23.14;100.00;102256.91;5084102;28;20040;-52
2022/06/17 01:27:29;;;;;;;32.23;9.67;;;;;;;22.92;100.00;102257.59;5095306;28;20033;-54
2022/06/17 01:29:55;;;;;;;17.63;9.70;;;;;;;22.75;100.00;102246.66;5081217;28;20024;-52
2022/06/17 01:32:27;;;;;;;21.52;11.70;;;;;;;22.68;100.00;102246.81;5082303;28;20036;-52
2022/06/17 01:34:53;;;;;;;20.40;12.33;;;;;;;22.78;100.00;102252.44;5093023;28;20032;-53
2022/06/17 01:37:19;;;;;;;;;;;;;;;22.42;100.00;102248.16;5094453;28;20059;-54
2022/06/17 01:39:45;;;;;;;16.23;9.07;;;;;;;22.44;100.00;102248.75;5084751;28;19938;-51
2022/06/17 01:42:12;;;;;;;15.60;9.87;;;;;;;22.88;100.00;102256.44;5094021;28;20032;-52
2022/06/17 01:44:40;;;;;;;15.27;9.75;;;;;;;22.63;100.00;102250.25;5093789;28;20059;-52
2022/06/17 01:47:12;;;;;;;11.87;9.30;;;;;;;22.45;100.00;102242.22;5080573;28;20112;-54
2022/06/17 01:49:43;;;;;;;16.97;10.00;;;;;;;22.65;100.00;102251.91;5080740;28;20051;-55
2022/06/17 01:52:17;;;;;;;15.40;9.67;;;;;;;22.66;100.00;102248.94;5091557;28;20036;-54
2022/06/17 01:55:00;;;;;;;15.07;9.70;;;;;;;22.47;100.00;102248.28;5082218;28;20032;-54
2022/06/17 01:57:32;;;;;;;16.33;9.87;;;;;;;22.62;100.00;102247.78;5080859;28;20035;-53
2022/06/17 02:00:05;;;;;;;17.97;9.47;;;;;;;22.56;100.00;102251.47;5083443;28;20039;-53
2022/06/17 02:02:43;;;;;;;17.33;9.57;;;;;;;22.50;100.00;102261.47;5093474;28;20044;-53
2022/06/17 02:05:10;;;;;;;19.30;10.57;;;;;;;22.34;100.00;102258.38;5077673;28;20040;-55
2022/06/17 02:07:52;;;;;;;16.73;10.17;;;;;;;22.11;100.00;102251.06;5081811;28;20040;-55
2022/06/17 02:10:20;;;;;;;14.47;9.90;;;;;;;22.25;100.00;102254.34;5082832;28;20032;-54
2022/06/17 02:12:46;;;;;;;24.50;10.50;;;;;;;23.10;100.00;102261.19;5080852;28;20028;-54
2022/06/17 02:15:12;;;;;;;15.00;11.32;;;;;;;24.61;100.00;102265.88;5064617;28;20042;-50
2022/06/17 02:18:07;;;;;;;19.77;10.43;;;;;;;22.71;100.00;102257.22;5091626;28;20074;-53
2022/06/17 02:20:40;;;;;;;16.87;10.50;;;;;;;22.56;100.00;102254.19;5078517;28;20047;-52
2022/06/17 02:23:06;;;;;;;15.80;10.90;;;;;;;22.36;100.00;102247.22;5080834;28;20063;-54
2022/06/17 02:25:52;;;;;;;18.83;10.80;;;;;;;22.32;100.00;102246.03;5081747;28;20099;-53
2022/06/17 02:28:20;;;;;;;17.43;10.70;;;;;;;22.22;100.00;102238.50;5080933;28;20028;-55
2022/06/17 02:30:48;;;;;;;16.70;11.10;;;;;;;22.17;100.00;102244.69;5082554;28;20032;-55
2022/06/17 02:33:14;;;;;;;15.27;10.17;;;;;;;22.24;100.00;102232.81;5080624;28;20112;-56
2022/06/17 02:35:49;;;;;;;16.33;10.87;;;;;;;22.27;100.00;102229.59;5093177;28;20024;-54
2022/06/17 02:38:19;;;;;;;18.67;11.80;;;;;;;21.75;100.00;102223.84;5080608;28;20025;-55
2022/06/17 02:40:50;;;;;;;16.33;10.70;;;;;;;21.86;100.00;102230.38;5078131;28;20024;-51
2022/06/17 02:43:27;;;;;;;18.57;10.37;;;;;;;21.65;100.00;102228.25;5080522;28;20047;-50
2022/06/17 02:46:01;;;;;;;15.27;10.60;;;;;;;21.84;100.00;102232.50;5080694;28;20035;-55
2022/06/17 02:48:42;;;;;;;19.00;11.80;;;;;;;21.90;100.00;102231.53;5079040;28;20291;-53
2022/06/17 02:51:11;;;;;;;18.87;11.57;;;;;;;21.55;100.00;102234.25;5092672;28;20033;-54
2022/06/17 02:53:38;;;;;;;21.20;12.17;;;;;;;21.90;100.00;102238.91;5090669;28;20024;-51
2022/06/17 02:56:15;;;;;;;21.50;12.10;;;;;;;21.75;100.00;102245.66;5080898;28;20024;-51
2022/06/17 02:59:03;;;;;;;17.58;11.60;;;;;;;22.46;100.00;102230.25;5093359;28;20040;-52
2022/06/17 03:01:33;;;;;;;16.63;10.63;;;;;;;23.06;100.00;102236.31;5080554;28;20459;-52
2022/06/17 03:04:24;;;;;;;23.83;11.60;;;;;;;21.77;100.00;102229.09;5080151;28;20032;-53
2022/06/17 03:06:50;;;;;;;19.67;11.43;;;;;;;21.73;100.00;102241.53;5092207;28;20284;-53
2022/06/17 03:09:16;;;;;;;18.90;12.52;;;;;;;21.86;100.00;102245.91;5080332;28;20045;-55
2022/06/17 03:11:45;;;;;;;19.55;11.70;;;;;;;22.05;100.00;102260.19;5080141;28;20122;-55
2022/06/17 03:14:12;;;;;;;17.07;11.47;;;;;;;22.40;100.00;102258.47;5079041;28;20028;-56
2022/06/17 03:16:41;;;;;;;18.13;11.45;;;;;;;22.54;100.00;102265.34;5079996;28;20308;-55
2022/06/17 03:19:07;;;;;;;18.90;11.33;;;;;;;22.78;100.00;102257.91;5074855;28;20032;-52
2022/06/17 03:21:34;;;;;;;19.47;11.83;;;;;;;23.28;100.00;102260.97;5063061;28;20031;-54
2022/06/17 03:24:12;;;;;;;17.63;12.07;;;;;;;22.56;100.00;102265.09;5092371;28;20040;-53
2022/06/17 03:26:49;;;;;;;16.77;10.97;;;;;;;22.75;100.00;102252.13;5061395;28;20028;-56
2022/06/17 03:29:18;;;;;;;14.37;10.87;;;;;;;22.16;100.00;102264.81;5044586;28;20295;-52
2022/06/17 03:31:52;;;;;;;19.23;11.97;;;;;;;21.96;100.00;102261.63;5090202;28;20041;-55
2022/06/17 03:34:36;;;;;;;16.20;11.00;;;;;;;21.81;100.00;102271.09;5041932;28;20337;-55
2022/06/17 03:37:11;;;;;;;20.87;11.93;;;;;;;21.67;100.00;102269.66;5039312;28;20276;-52
2022/06/17 03:39:43;;;;;;;25.67;12.93;;;;;;;21.73;100.00;102272.28;5092151;28;20257;-54
2022/06/17 03:42:29;;;;;;;22.30;11.50;;;;;;;21.83;100.00;102268.97;5039994;28;20129;-56
2022/06/17 03:45:04;;;;;;;20.30;11.03;;;;;;;21.65;100.00;102272.63;5054405;28;20032;-54
2022/06/17 03:47:48;;;;;;;16.53;11.93;;;;;;;21.70;100.00;102272.75;5044088;28;20262;-54
2022/06/17 03:50:27;;;;;;;27.37;12.43;;;;;;;21.57;100.00;102279.22;5090502;28;20036;-55
2022/06/17 03:53:21;;;;;;;20.67;12.33;;;;;;;21.52;100.00;102275.53;5048601;28;20038;-55
2022/06/17 03:55:49;;;;;;;33.20;17.60;;;;;;;21.49;100.00;102274.94;5041554;28;20027;-54
2022/06/17 03:58:17;;;;;;;22.33;13.87;;;;;;;21.73;100.00;102276.91;5090284;28;20272;-54
2022/06/17 04:01:00;;;;;;;28.53;16.83;;;;;;;22.81;100.00;102280.28;5051394;28;20308;-54
2022/06/17 04:03:29;;;;;;;26.43;15.90;;;;;;;21.51;100.00;102271.16;5090047;28;20039;-52
2022/06/17 04:06:00;;;;;;;59.03;31.00;;;;;;;21.59;100.00;102268.94;5040086;28;20054;-55
2022/06/17 04:08:27;;;;;;;16.13;11.33;;;;;;;21.65;100.00;102260.91;5069700;28;20086;-54
2022/06/17 04:10:52;;;;;;;20.52;11.82;;;;;;;22.22;100.00;102264.91;5045558;28;20029;-54
2022/06/17 04:13:23;;;;;;;23.75;14.88;;;;;;;21.54;100.00;102260.66;5037638;28;20043;-53
2022/06/17 04:16:02;;;;;;;17.53;11.13;;;;;;;21.49;100.00;102268.69;5048480;28;20040;-52
2022/06/17 04:18:34;;;;;;;33.80;19.73;;;;;;;21.58;100.00;102261.81;5053990;28;20095;-55
2022/06/17 04:21:02;;;;;;;25.57;17.50;;;;;;;21.81;100.00;102265.66;5067759;28;20040;-58
2022/06/17 04:23:33;;;;;;;16.30;11.73;;;;;;;21.45;100.00;102254.72;5083220;28;20055;-55
2022/06/17 04:26:26;;;;;;;23.37;13.83;;;;;;;21.48;100.00;102264.31;5059668;28;20118;-56
2022/06/17 04:28:59;;;;;;;29.27;16.27;;;;;;;21.77;100.00;102259.03;5081901;28;20040;-55
2022/06/17 04:31:30;;;;;;;30.30;18.37;;;;;;;21.99;100.00;102251.06;5082636;28;20040;-57
2022/06/17 04:34:16;;;;;;;17.77;12.20;;;;;;;21.86;100.00;102235.81;5081151;28;20095;-54
2022/06/17 04:37:00;;;;;;;18.10;11.40;;;;;;;21.48;100.00;102247.97;5070792;28;20035;-54
2022/06/17 04:39:36;;;;;;;22.93;12.03;;;;;;;21.70;100.00;102248.25;5072462;28;20030;-55
2022/06/17 04:42:31;;;;;;;22.80;13.43;;;;;;;21.92;100.00;102251.22;5076465;28;20059;-56
2022/06/17 04:44:59;;;;;;;22.30;11.40;;;;;;;21.98;100.00;102249.41;5069896;28;20037;-56
2022/06/17 04:47:25;;;;;;;23.47;12.10;;;;;;;21.80;100.00;102242.22;5083864;28;20024;-56
2022/06/17 04:49:57;;;;;;;19.17;12.13;;;;;;;22.06;100.00;102242.78;5085193;28;20039;-53
2022/06/17 04:52:38;;;;;;;19.87;13.00;;;;;;;21.88;100.00;102244.56;5076040;28;20037;-54
2022/06/17 04:55:28;;;;;;;20.00;12.70;;;;;;;21.90;100.00;102247.88;5069038;28;20615;-55
2022/06/17 04:58:27;;;;;;;20.47;12.73;;;;;;;22.01;100.00;102235.31;4997848;28;20050;-54
2022/06/17 05:00:57;;;;;;;19.40;11.53;;;;;;;21.87;100.00;102242.91;5074648;28;20394;-50
2022/06/17 05:03:36;;;;;;;19.53;11.80;;;;;;;21.84;100.00;102243.41;5084699;28;20035;-55
2022/06/17 05:06:40;;;;;;;17.40;11.10;;;;;;;22.16;100.00;102240.28;5056865;28;20051;-56
2022/06/17 05:09:19;;;;;;;21.37;12.07;;;;;;;22.15;100.00;102240.53;5080341;28;20042;-54
2022/06/17 05:11:48;;;;;;;16.73;11.10;;;;;;;22.01;100.00;102239.94;5084190;28;20043;-57
2022/06/17 05:14:25;;;;;;;24.77;12.37;;;;;;;21.95;100.00;102246.38;5080891;28;20045;-56
2022/06/17 05:16:50;;;;;;;17.83;12.93;;;;;;;22.29;100.00;102239.19;5068694;28;20046;-55
2022/06/17 05:19:16;;;;;;;20.23;12.80;;;;;;;22.17;100.00;102239.22;5059157;28;20969;-53
2022/06/17 05:21:41;;;;;;;16.80;13.02;;;;;;;22.20;100.00;102232.44;5078654;28;20016;-56
2022/06/17 05:24:14;;;;;;;20.10;13.63;;;;;;;22.16;100.00;102240.28;5082035;28;20048;-57
2022/06/17 05:26:40;;;;;;;18.20;13.33;;;;;;;22.33;100.00;102234.06;5053080;28;20609;-54
2022/06/17 05:29:09;;;;;;;23.40;14.10;;;;;;;22.22;100.00;102224.06;5083292;28;20056;-54
2022/06/17 05:31:40;;;;;;;26.43;15.23;;;;;;;22.23;100.00;102225.72;5067331;28;20039;-55
2022/06/17 05:34:06;;;;;;;18.10;12.40;;;;;;;22.17;100.00;102241.94;5081924;28;20022;-55
2022/06/17 05:36:32;;;;;;;22.00;13.77;;;;;;;22.35;100.00;102248.28;5084295;28;20063;-54
2022/06/17 05:38:58;;;;;;;38.30;14.45;;;;;;;22.40;100.00;102240.25;5078968;28;20097;-53
2022/06/17 05:41:24;;;;;;;33.73;13.60;;;;;;;22.46;100.00;102242.03;5077952;28;20016;-55
2022/06/17 05:43:52;;;;;;;25.43;15.23;;;;;;;22.35;100.00;102240.94;5081210;28;20088;-57
2022/06/17 05:46:26;;;;;;;37.83;13.57;;;;;;;22.54;100.00;102237.25;5079392;28;20051;-56
2022/06/17 05:49:11;;;;;;;29.07;13.30;;;;;;;22.81;100.00;102229.31;5076203;28;20511;-54
2022/06/17 05:52:10;;;;;;;23.70;14.30;;;;;;;23.01;100.00;102228.03;5060660;28;20067;-56
2022/06/17 05:54:45;;;;;;;18.47;11.87;;;;;;;23.19;100.00;102238.72;5080654;28;20029;-55
2022/06/17 05:57:16;;;;;;;24.87;11.93;;;;;;;22.86;100.00;102223.13;5068761;28;20038;-55
2022/06/17 05:59:42;;;;;;;35.77;14.40;;;;;;;23.13;100.00;102233.44;5072160;28;20059;-54
2022/06/17 06:02:11;;;;;;;27.70;11.83;;;;;;;22.67;100.00;102222.50;5052071;28;20034;-55
2022/06/17 06:04:56;;;;;;;19.63;11.77;;;;;;;23.53;100.00;102237.94;5081204;28;20507;-56
2022/06/17 06:07:23;;;;;;;19.13;11.87;;;;;;;22.98;100.00;102234.78;5071904;28;20042;-56
2022/06/17 06:09:49;;;;;;;16.92;11.35;;;;;;;22.88;100.00;102224.53;5080293;28;20035;-55
2022/06/17 06:12:15;;;;;;;26.45;12.32;;;;;;;22.96;100.00;102226.03;5060246;28;20042;-54
2022/06/17 06:14:41;;;;;;;28.60;11.90;;;;;;;23.08;100.00;102223.25;5064199;28;20068;-56
2022/06/17 06:17:10;;;;;;;40.13;12.90;;;;;;;23.22;100.00;102217.47;5074024;28;20040;-55
2022/06/17 06:19:36;;;;;;;52.93;14.70;;;;;;;23.29;100.00;102223.63;5075311;28;20049;-56
2022/06/17 06:22:01;;;;;;;26.02;11.77;;;;;;;23.17;100.00;102219.03;5065753;28;20031;-55
2022/06/17 06:24:28;;;;;;;19.53;12.27;;;;;;;23.12;100.00;102218.13;5050782;28;20040;-58
2022/06/17 06:26:54;;;;;;;19.83;12.57;;;;;;;23.34;100.00;102215.50;5052134;28;20036;-57
2022/06/17 06:29:24;;;;;;;20.03;11.43;;;;;;;23.41;100.00;102215.34;5051241;28;20040;-55
2022/06/17 06:31:50;;;;;;;23.15;10.48;;;;;;;23.44;100.00;102206.66;5029546;28;20034;-55
2022/06/17 06:34:35;;;;;;;18.70;11.87;;;;;;;23.51;100.00;102212.75;5065570;28;20041;-57
2022/06/17 06:37:01;;;;;;;18.35;10.85;;;;;;;23.49;100.00;102220.38;5051165;28;20048;-56
2022/06/17 06:39:27;;;;;;;19.45;11.27;;;;;;;23.74;100.00;102219.09;5034489;28;20047;-55
2022/06/17 06:41:56;;;;;;;20.43;11.70;;;;;;;23.94;100.00;102212.25;5073242;28;20055;-54
2022/06/17 06:44:22;;;;;;;14.60;11.13;;;;;;;24.09;100.00;102220.69;5026839;28;20050;-54
2022/06/17 06:47:12;;;;;;;17.87;10.67;;;;;;;24.09;100.00;102220.69;5049752;28;20043;-55
2022/06/17 06:49:54;;;;;;;20.30;11.33;;;;;;;23.77;100.00;102218.63;5041913;28;20132;-54
2022/06/17 06:52:23;;;;;;;16.70;9.87;;;;;;;23.65;100.00;102223.34;5059257;28;20036;-53
2022/06/17 06:54:51;;;;;;;;;;;;;;;23.89;100.00;102210.31;5051644;28;20033;-55
2022/06/17 06:57:19;;;;;;;15.77;9.43;;;;;;;23.65;100.00;102209.69;5092935;28;19946;-54
2022/06/17 06:59:44;;;;;;;13.67;8.77;;;;;;;24.20;100.00;102205.25;5053536;28;20037;-57
2022/06/17 07:02:10;;;;;;;16.17;8.93;;;;;;;24.00;100.00;102205.81;5055667;28;20024;-55
2022/06/17 07:04:36;;;;;;;12.63;8.55;;;;;;;23.96;100.00;102210.94;5092977;28;20036;-55
2022/06/17 07:07:01;;;;;;;12.60;7.97;;;;;;;23.75;100.00;102198.91;5087444;28;20100;-55
2022/06/17 07:09:27;;;;;;;15.35;8.00;;;;;;;24.14;100.00;102212.56;5092299;28;20055;-53
2022/06/17 07:11:52;;;;;;;14.75;8.02;;;;;;;23.85;100.00;102209.13;5092437;28;20083;-55
2022/06/17 07:14:17;;;;;;;27.40;7.85;;;;;;;23.84;100.00;102219.25;5092869;28;20041;-56
2022/06/17 07:16:43;;;;;;;12.70;7.88;;;;;;;23.77;100.00;102218.63;5092786;28;20052;-55
2022/06/17 07:19:15;;;;;;;16.63;8.23;;;;;;;23.81;100.00;102218.91;5086658;28;20051;-54
2022/06/17 07:21:40;;;;;;;17.67;9.73;;;;;;;24.17;100.00;102225.72;5090943;28;20032;-55
2022/06/17 07:24:06;;;;;;;20.42;10.18;;;;;;;23.99;100.00;102221.38;5092531;28;20032;-54
2022/06/17 07:26:31;;;;;;;;;;;;;;;23.84;100.00;102222.00;5092831;28;20037;-54
2022/06/17 07:28:57;;;;;;;14.43;9.30;;;;;;;24.03;100.00;102221.72;5088036;28;19919;-52
2022/06/17 07:31:23;;;;;;;25.45;10.10;;;;;;;23.99;100.00;102224.09;5092267;28;20036;-54
2022/06/17 07:33:48;;;;;;;20.35;10.75;;;;;;;24.48;100.00;102230.72;5092349;28;20044;-56
2022/06/17 07:39:53;;;;;;;20.88;10.90;;;;;;;24.49;100.00;102235.94;5090526;28;20040;-57
2022/06/17 07:41:55;;;;;;;21.83;10.47;;;;;;;24.94;100.00;102233.16;5091047;28;20031;-55
2022/06/17 07:44:20;;;;;;;16.92;10.80;;;;;;;25.00;100.00;102232.09;5088235;28;20040;-57
2022/06/17 07:46:47;;;;;;;16.70;10.40;;;;;;;24.49;100.00;102229.63;5090503;28;20062;-54
2022/06/17 07:49:13;;;;;;;;;;;;;;;24.53;100.00;102238.16;5094960;28;20068;-54
2022/06/17 07:51:39;;;;;;;20.43;11.33;;;;;;;24.62;100.00;102239.34;5089954;28;19994;-55
2022/06/17 07:54:05;;;;;;;18.20;11.60;;;;;;;24.20;100.00;102240.78;5092881;28;20066;-55
2022/06/17 07:56:31;;;;;;;16.50;10.85;;;;;;;24.51;100.00;102254.00;5095710;28;20040;-53
2022/06/17 07:58:56;;;;;;;13.27;9.82;;;;;;;25.08;100.00;102251.88;5088023;28;20067;-55
2022/06/17 08:01:21;;;;;;;17.92;9.80;;;;;;;25.29;100.00;102252.88;5096003;28;20131;-53
2022/06/17 08:03:47;;;;;;;20.75;9.23;;;;;;;24.47;100.00;102250.94;5060212;28;20047;-53
2022/06/17 08:06:13;;;;;;;13.38;9.27;;;;;;;24.62;100.00;102259.34;5094574;28;20471;-54
2022/06/17 08:08:40;;;;;;;13.67;9.40;;;;;;;24.96;100.00;102252.88;5094143;28;20037;-57
2022/06/17 08:11:07;;;;;;;15.03;8.53;;;;;;;25.15;100.00;102252.50;5093717;28;20036;-55
2022/06/17 08:13:32;;;;;;;14.05;8.32;;;;;;;25.09;100.00;102259.81;5095358;28;20033;-57
2022/06/17 08:16:00;;;;;;;11.32;8.68;;;;;;;25.48;100.00;102256.06;5095381;28;20553;-56
2022/06/17 08:18:26;;;;;;;17.93;8.17;;;;;;;25.64;100.00;102254.25;5094271;28;20043;-58
2022/06/17 08:20:52;;;;;;;17.57;8.17;;;;;;;25.98;100.00;102250.34;5093497;28;20044;-52
2022/06/17 08:23:19;;;;;;;18.70;8.27;;;;;;;26.45;96.83;102243.19;5094603;28;20100;-57
2022/06/17 08:25:44;;;;;;;16.63;6.93;;;;;;;25.88;97.24;102241.00;5090307;28;20100;-55
2022/06/17 08:28:12;;;;;;;15.57;6.17;;;;;;;25.61;100.00;102239.19;5087781;28;20035;-53
2022/06/17 08:30:43;;;;;;;9.87;5.80;;;;;;;25.87;92.52;102239.34;5064014;28;20082;-55
2022/06/17 08:33:08;;;;;;;10.87;5.53;;;;;;;25.40;95.77;102242.84;5094184;28;20098;-54
2022/06/17 08:35:48;;;;;;;7.23;4.57;;;;;;;25.37;94.83;102248.81;5095287;28;20028;-55
2022/06/17 08:38:21;;;;;;;9.90;5.23;;;;;;;25.52;93.79;102232.53;5063138;28;20111;-58
2022/06/17 08:40:55;;;;;;;10.27;5.83;;;;;;;25.87;91.84;102242.06;5094125;28;20033;-56
2022/06/17 08:43:44;;;;;;;37.17;22.30;;;;;;;25.87;90.16;102252.19;5094673;28;20095;-57
2022/06/17 08:46:44;;;;;;;30.37;16.63;;;;;;;25.84;91.43;102242.63;5081255;28;20091;-54
2022/06/17 08:49:48;;;;;;;20.57;10.63;;;;;;;25.97;92.11;102251.44;5089667;28;20104;-54
2022/06/17 08:52:16;;;;;;;19.77;11.30;;;;;;;26.19;87.72;102243.91;5092698;28;20037;-55
2022/06/17 08:55:30;;;;;;;15.20;8.67;;;;;;;26.06;87.15;102245.19;5094428;28;20039;-55
2022/06/17 08:58:10;;;;;;;14.20;7.40;;;;;;;26.28;85.81;102263.41;5076407;28;20067;-54
2022/06/17 09:00:49;;;;;;;13.23;6.87;;;;;;;26.51;82.41;102265.94;5092301;28;20040;-55
2022/06/17 09:03:26;;;;;;;18.47;9.27;;;;;;;26.47;84.38;102261.00;5091392;28;20040;-57
2022/06/17 09:06:12;;;;;;;169.10;97.93;;;;;;;26.52;84.09;102248.38;5093246;28;20052;-53
2022/06/17 09:09:00;;;;;;;16.27;8.03;;;;;;;26.75;81.33;102234.16;5090327;28;20037;-54
2022/06/17 09:11:49;;;;;;;22.40;12.97;;;;;;;26.57;82.92;102242.94;5093995;28;20115;-57
2022/06/17 09:14:23;;;;;;;16.93;9.30;;;;;;;26.44;83.70;102247.81;5067436;28;20047;-58
2022/06/17 09:17:15;;;;;;;19.23;7.47;;;;;;;26.54;78.98;102236.06;5083746;28;20058;-55
2022/06/17 09:19:45;;;;;;;10.23;5.63;;;;;;;26.55;77.75;102240.44;5079855;28;20050;-55
2022/06/17 09:22:20;;;;;;;11.10;5.37;;;;;;;26.96;76.02;102241.66;5082944;28;20033;-56
2022/06/17 09:24:45;;;;;;;12.17;4.87;;;;;;;26.82;74.59;102241.34;5064393;28;20059;-53
2022/06/17 09:27:20;;;;;;;;;;;;;;;26.80;74.49;102246.28;5066994;28;20026;-57
2022/06/17 09:29:59;;;;;;;10.17;5.00;;;;;;;26.77;75.27;102251.22;5072425;28;19912;-54
2022/06/17 09:32:29;;;;;;;23.53;4.90;;;;;;;26.89;74.94;102261.97;5078775;28;20096;-56
2022/06/17 09:35:07;;;;;;;8.67;4.77;;;;;;;27.13;72.59;102260.59;5070004;28;20036;-56
2022/06/17 09:37:46;;;;;;;63.60;28.77;;;;;;;27.24;72.56;102251.28;5093680;28;20028;-56
2022/06/17 09:40:20;;;;;;;41.70;20.43;;;;;;;26.99;77.83;102239.19;5061641;28;20038;-54
2022/06/17 09:42:58;;;;;;;26.37;11.13;;;;;;;27.81;73.55;102237.47;5069173;28;20031;-56
2022/06/17 09:45:33;;;;;;;9.57;5.37;;;;;;;27.95;70.68;102245.13;5071450;28;20068;-56
2022/06/17 09:48:06;;;;;;;15.40;8.10;;;;;;;28.30;68.44;102251.59;5065503;28;20044;-59
2022/06/17 09:50:48;;;;;;;11.80;6.40;;;;;;;28.71;65.43;102234.88;5081481;28;20063;-56
2022/06/17 09:53:25;;;;;;;8.73;4.78;;;;;;;29.45;61.20;102246.97;5093120;28;20037;-56
2022/06/17 09:55:59;;;;;;;9.80;5.10;;;;;;;30.15;59.23;102247.63;5076478;28;20036;-56
2022/06/17 09:58:36;;;;;;;12.02;5.03;;;;;;;29.67;59.28;102245.66;5073195;28;20045;-56
2022/06/17 10:01:02;;;;;;;8.02;4.25;;;;;;;29.77;58.43;102249.13;5087902;28;20040;-48
2022/06/17 10:03:32;;;;;;;10.57;4.35;;;;;;;30.55;56.85;102239.88;5057350;28;20027;-47
2022/06/17 10:06:04;;;;;;;11.15;3.85;;;;;;;30.99;52.13;102237.84;5093681;28;20043;-48
2022/06/17 10:08:38;;;;;;;7.47;3.15;;;;;;;32.21;51.33;102244.44;5061641;28;20055;-49
2022/06/17 10:11:15;;;;;;;11.90;3.63;;;;;;;32.40;47.55;102236.84;5071126;28;20322;-48
2022/06/17 10:14:16;;;;;;;11.15;3.85;;;;;;;32.37;45.11;102231.94;5069154;28;20026;-47
2022/06/17 10:20:26;;;;;;;7.82;3.83;;;;;;;32.57;43.15;102241.72;5081317;28;20052;-49
2022/06/17 10:23:02;;;;;;;7.38;3.38;;;;;;;32.92;41.38;102238.41;5048914;28;20045;-52
2022/06/17 10:25:50;;;;;;;5.45;2.60;;;;;;;32.99;41.56;102229.66;5094790;28;20051;-52
2022/06/17 10:28:15;;;;;;;5.05;2.60;;;;;;;33.10;42.30;102230.22;5093814;28;20096;-54
2022/06/17 10:30:49;;;;;;;8.48;3.30;;;;;;;32.90;41.75;102213.00;5091483;28;20044;-48
2022/06/17 10:33:23;;;;;;;9.38;2.85;;;;;;;32.92;41.19;102219.03;4990354;28;20387;-50
2022/06/17 10:35:49;;;;;;;9.68;3.50;;;;;;;33.34;40.81;102229.88;4972653;28;20281;-52
2022/06/17 10:38:23;;;;;;;11.95;3.47;;;;;;;33.80;40.77;102225.00;4971665;28;20044;-51
2022/06/17 10:40:50;;;;;;;8.43;2.83;;;;;;;33.96;37.74;102219.03;4973192;28;20035;-48
2022/06/17 10:43:20;;;;;;;10.32;3.22;;;;;;;33.55;37.56;102230.16;4975259;28;20106;-55
2022/06/17 10:45:48;;;;;;;6.03;2.60;;;;;;;33.43;38.13;102222.44;4974071;28;20035;-53
2022/06/17 10:48:32;;;;;;;7.75;3.30;;;;;;;34.44;35.99;102211.72;4972023;28;20035;-52
2022/06/17 10:51:00;;;;;;;9.30;3.38;;;;;;;35.20;35.99;102212.28;4971550;28;20100;-52
2022/06/17 10:53:35;;;;;;;6.22;2.85;;;;;;;34.78;35.51;102223.97;4969661;28;20059;-52
2022/06/17 10:56:09;;;;;;;8.77;2.60;;;;;;;35.57;33.81;102215.44;4969465;28;20031;-52
2022/06/17 10:58:35;;;;;;;5.93;2.70;;;;;;;35.46;34.86;102209.41;4976826;28;20051;-51
2022/06/17 11:01:01;;;;;;;6.03;2.78;;;;;;;35.80;34.64;102206.81;4971701;28;20102;-53
2022/06/17 11:03:32;;;;;;;9.70;3.75;;;;;;;35.06;36.32;102197.78;4968557;28;20035;-54
2022/06/17 11:06:05;;;;;;;8.00;3.55;;;;;;;35.01;36.23;102202.38;4974250;28;20038;-54
2022/06/17 11:08:55;;;;;;;12.02;4.18;;;;;;;34.62;36.40;102193.13;4973228;28;20039;-51
2022/06/17 11:14:31;;;;;;;6.97;2.72;;;;;;;36.09;33.36;102188.47;4971981;28;20131;-53
2022/06/17 11:16:56;;;;;;;10.13;3.35;;;;;;;36.39;32.99;102193.94;4969961;28;20062;-54
2022/06/17 11:19:25;;;;;;;4.47;2.30;;;;;;;36.82;33.01;102191.09;4974120;28;20034;-52
2022/06/17 11:21:54;;;;;;;7.18;2.40;;;;;;;36.40;31.91;102178.03;4975592;28;20028;-55
2022/06/17 11:24:28;;;;;;;13.88;3.13;;;;;;;36.69;31.76;102182.72;4971875;28;20047;-55
2022/06/17 11:27:04;;;;;;;8.68;2.70;;;;;;;36.36;32.62;102177.91;4972216;28;20036;-54
2022/06/17 11:30:17;;;;;;;10.65;2.85;;;;;;;37.08;31.66;102178.84;4972603;28;20039;-52
2022/06/17 11:32:45;;;;;;;5.25;2.53;;;;;;;37.34;31.48;102170.16;4978955;28;20106;-47
2022/06/17 11:35:19;;;;;;;6.05;3.03;;;;;;;37.36;31.52;102186.53;4994016;28;20037;-54
2022/06/17 11:37:47;;;;;;;5.53;2.72;;;;;;;37.47;30.59;102168.16;4989132;28;20050;-56
2022/06/17 11:40:18;;;;;;;4.82;2.35;;;;;;;38.61;29.92;102162.75;4989394;28;20072;-50
2022/06/17 11:42:47;;;;;;;10.93;2.65;;;;;;;38.54;28.99;102165.38;4989715;28;20035;-55
2022/06/17 11:45:24;;;;;;;6.10;2.30;;;;;;;39.67;28.06;102161.38;4979755;28;20031;-55